Cochabamba, Bolivia
Current Conditions -  °F | °C
As of 12:00 AM on Friday 21 Nov 2014 (Local Time) from SLCB Reporting Station
Few Clouds Few Clouds  
Wind Chill: 59°   Ceiling: Unl
Heat Index: 59°   Visibility: 6mi
Dew Point: 45°   Wind: 7mph
Humidity: 59%   Direction: 210°SSW
Pressure: 30.18"   Gusts: NA
Location:  17.38°S, 66.17°W
Report Text: SLCB 210400Z 21006KT 9999 FEW027 FEW030CB 15/07 Q1022
Loading
Personal Weather Stations






























Interactive Weather Map New forecast layout! Learn more

10-Day Weather Forecast

Advertisements
Track Severe Weather on mobile